Portscatho, United Kingdom
Current Conditions -  °F | °C
As of 2:50 PM on Monday 22 Dec 2014 (Local Time) from EGDR Reporting Station
Haze Haze  
Wind Chill: 12°   Ceiling: 2600
Heat Index: 12°   Visibility: 6mi
Dew Point:   Wind: 16mph
Humidity: 82%   Direction: 240°WSW
Pressure: 30.18"   Gusts: 32mph
Location:  50.17°N, 4.97°W
Report Text: EGDR 221450Z 24014G28KT 9999 HZ FEW012 SCT020 OVC026 12/09 Q1022 WHT
Loading
Personal Weather Stations






























Interactive Weather Map New forecast layout! Learn more

10-Day Weather Forecast

Advertisements
Track Severe Weather on mobile